sensor_id;sensor_type;location;lat;lon;timestamp;pressure;altitude;pressure_sealevel;temperature;humidity
6853;BME280;3465;42.144;24.722;2023-05-17T00:01:16;146524.84;;;14.43;100.00
6853;BME280;3465;42.144;24.722;2023-05-17T00:03:41;146484.66;;;14.27;100.00
6853;BME280;3465;42.144;24.722;2023-05-17T00:06:07;146454.41;;;14.15;100.00
6853;BME280;3465;42.144;24.722;2023-05-17T00:08:32;146446.88;;;14.12;100.00
6853;BME280;3465;42.144;24.722;2023-05-17T00:10:57;146444.41;;;14.11;100.00
6853;BME280;3465;42.144;24.722;2023-05-17T00:13:23;146430.56;;;14.05;100.00
6853;BME280;3465;42.144;24.722;2023-05-17T00:15:48;146419.25;;;14.01;100.00
6853;BME280;3465;42.144;24.722;2023-05-17T00:18:14;146384.09;;;13.87;100.00
6853;BME280;3465;42.144;24.722;2023-05-17T00:20:40;146328.88;;;13.65;100.00
6853;BME280;3465;42.144;24.722;2023-05-17T00:23:05;146347.69;;;13.72;100.00
6853;BME280;3465;42.144;24.722;2023-05-17T00:25:30;146336.41;;;13.68;100.00
6853;BME280;3465;42.144;24.722;2023-05-17T00:27:56;146323.84;;;13.63;100.00
6853;BME280;3465;42.144;24.722;2023-05-17T00:30:21;146274.84;;;13.43;100.00
6853;BME280;3465;42.144;24.722;2023-05-17T00:32:47;146316.31;;;13.60;100.00
6853;BME280;3465;42.144;24.722;2023-05-17T00:35:12;146325.06;;;13.63;100.00
6853;BME280;3465;42.144;24.722;2023-05-17T00:37:38;146343.91;;;13.71;100.00
6853;BME280;3465;42.144;24.722;2023-05-17T00:40:04;146369.06;;;13.81;100.00
6853;BME280;3465;42.144;24.722;2023-05-17T00:42:30;146371.53;;;13.82;100.00
6853;BME280;3465;42.144;24.722;2023-05-17T00:44:55;146382.84;;;13.86;100.00
6853;BME280;3465;42.144;24.722;2023-05-17T00:47:21;146362.75;;;13.78;100.00
6853;BME280;3465;42.144;24.722;2023-05-17T00:49:46;146288.69;;;13.49;100.00
6853;BME280;3465;42.144;24.722;2023-05-17T00:52:12;146258.53;;;13.37;100.00
6853;BME280;3465;42.144;24.722;2023-05-17T00:54:38;146253.50;;;13.35;100.00
6853;BME280;3465;42.144;24.722;2023-05-17T00:57:04;146268.59;;;13.41;100.00
6853;BME280;3465;42.144;24.722;2023-05-17T00:59:30;146264.78;;;13.39;100.00
6853;BME280;3465;42.144;24.722;2023-05-17T01:01:57;146286.16;;;13.48;100.00
6853;BME280;3465;42.144;24.722;2023-05-17T01:04:24;146288.69;;;13.49;100.00
6853;BME280;3465;42.144;24.722;2023-05-17T01:06:49;146281.13;;;13.46;100.00
6853;BME280;3465;42.144;24.722;2023-05-17T01:09:15;146293.66;;;13.51;100.00
6853;BME280;3465;42.144;24.722;2023-05-17T01:28:09;146227.16;;;13.24;100.00
6853;BME280;3465;42.144;24.722;2023-05-17T01:30:37;146224.63;;;13.23;100.00
6853;BME280;3465;42.144;24.722;2023-05-17T01:33:03;146235.97;;;13.28;100.00
6853;BME280;3465;42.144;24.722;2023-05-17T01:35:28;146225.91;;;13.24;100.00
6853;BME280;3465;42.144;24.722;2023-05-17T01:37:54;146212.09;;;13.18;100.00
6853;BME280;3465;42.144;24.722;2023-05-17T01:40:20;146187.00;;;13.08;100.00
6853;BME280;3465;42.144;24.722;2023-05-17T01:42:51;146205.81;;;13.16;100.00
6853;BME280;3465;42.144;24.722;2023-05-17T01:45:30;146193.25;;;13.11;100.00
6853;BME280;3465;42.144;24.722;2023-05-17T01:50:47;146233.41;;;13.27;100.00
6853;BME280;3465;42.144;24.722;2023-05-17T01:53:37;146240.94;;;13.30;100.00
6853;BME280;3465;42.144;24.722;2023-05-17T01:56:07;146245.97;;;13.32;100.00
6853;BME280;3465;42.144;24.722;2023-05-17T01:58:44;146263.56;;;13.39;100.00
6853;BME280;3465;42.144;24.722;2023-05-17T02:01:12;146281.13;;;13.46;100.00
6853;BME280;3465;42.144;24.722;2023-05-17T02:03:38;146244.69;;;13.31;100.00
6853;BME280;3465;42.144;24.722;2023-05-17T02:06:04;146245.97;;;13.32;100.00
6853;BME280;3465;42.144;24.722;2023-05-17T02:08:30;146248.50;;;13.33;100.00
6853;BME280;3465;42.144;24.722;2023-05-17T02:10:55;146288.69;;;13.49;100.00
6853;BME280;3465;42.144;24.722;2023-05-17T02:13:20;146273.59;;;13.43;100.00
6853;BME280;3465;42.144;24.722;2023-05-17T02:15:46;146258.53;;;13.37;100.00
6853;BME280;3465;42.144;24.722;2023-05-17T02:18:11;146266.06;;;13.40;100.00
6853;BME280;3465;42.144;24.722;2023-05-17T02:20:37;146267.34;;;13.40;100.00
6853;BME280;3465;42.144;24.722;2023-05-17T02:23:02;146228.44;;;13.25;100.00
6853;BME280;3465;42.144;24.722;2023-05-17T02:25:27;146266.06;;;13.40;100.00
6853;BME280;3465;42.144;24.722;2023-05-17T02:27:53;146281.13;;;13.46;100.00
6853;BME280;3465;42.144;24.722;2023-05-17T02:30:18;146274.84;;;13.43;100.00
6853;BME280;3465;42.144;24.722;2023-05-17T02:32:46;146264.78;;;13.39;100.00
6853;BME280;3465;42.144;24.722;2023-05-17T02:35:12;146263.56;;;13.39;100.00
6853;BME280;3465;42.144;24.722;2023-05-17T02:37:37;146261.03;;;13.38;100.00
6853;BME280;3465;42.144;24.722;2023-05-17T02:40:04;146235.97;;;13.28;100.00
6853;BME280;3465;42.144;24.722;2023-05-17T02:42:33;146258.53;;;13.37;100.00
6853;BME280;3465;42.144;24.722;2023-05-17T02:44:58;146254.78;;;13.35;100.00
6853;BME280;3465;42.144;24.722;2023-05-17T02:47:24;146253.50;;;13.35;100.00
6853;BME280;3465;42.144;24.722;2023-05-17T02:49:49;146224.63;;;13.23;100.00
6853;BME280;3465;42.144;24.722;2023-05-17T02:52:15;146237.19;;;13.28;100.00
6853;BME280;3465;42.144;24.722;2023-05-17T02:54:40;146219.63;;;13.21;100.00
6853;BME280;3465;42.144;24.722;2023-05-17T02:57:08;146207.06;;;13.16;100.00
6853;BME280;3465;42.144;24.722;2023-05-17T02:59:34;146200.78;;;13.14;100.00
6853;BME280;3465;42.144;24.722;2023-05-17T03:01:59;146203.31;;;13.15;100.00
6853;BME280;3465;42.144;24.722;2023-05-17T03:04:25;146220.84;;;13.22;100.00
6853;BME280;3465;42.144;24.722;2023-05-17T03:06:50;146259.81;;;13.37;100.00
6853;BME280;3465;42.144;24.722;2023-05-17T03:09:16;146224.63;;;13.23;100.00
6853;BME280;3465;42.144;24.722;2023-05-17T03:11:41;146207.06;;;13.16;100.00
6853;BME280;3465;42.144;24.722;2023-05-17T03:14:07;146194.53;;;13.11;100.00
6853;BME280;3465;42.144;24.722;2023-05-17T03:16:32;146197.00;;;13.12;100.00
6853;BME280;3465;42.144;24.722;2023-05-17T03:18:57;146205.81;;;13.16;100.00
6853;BME280;3465;42.144;24.722;2023-05-17T03:21:23;146190.75;;;13.10;100.00
6853;BME280;3465;42.144;24.722;2023-05-17T03:23:48;146205.81;;;13.16;100.00
6853;BME280;3465;42.144;24.722;2023-05-17T03:26:13;146198.28;;;13.13;100.00
6853;BME280;3465;42.144;24.722;2023-05-17T03:28:39;146184.44;;;13.07;100.00
6853;BME280;3465;42.144;24.722;2023-05-17T03:31:04;146205.81;;;13.16;100.00
6853;BME280;3465;42.144;24.722;2023-05-17T03:33:30;146199.56;;;13.13;100.00
6853;BME280;3465;42.144;24.722;2023-05-17T03:35:56;146217.09;;;13.20;100.00
6853;BME280;3465;42.144;24.722;2023-05-17T03:38:21;146218.38;;;13.21;100.00
6853;BME280;3465;42.144;24.722;2023-05-17T03:40:47;146214.59;;;13.19;100.00
6853;BME280;3465;42.144;24.722;2023-05-17T03:43:12;146218.38;;;13.21;100.00
6853;BME280;3465;42.144;24.722;2023-05-17T03:45:38;146213.34;;;13.19;100.00
6853;BME280;3465;42.144;24.722;2023-05-17T03:48:04;146223.41;;;13.23;100.00
6853;BME280;3465;42.144;24.722;2023-05-17T03:50:29;146218.38;;;13.21;100.00
6853;BME280;3465;42.144;24.722;2023-05-17T03:52:56;146238.44;;;13.29;100.00
6853;BME280;3465;42.144;24.722;2023-05-17T03:55:22;146247.25;;;13.32;100.00
6853;BME280;3465;42.144;24.722;2023-05-17T03:57:48;146233.41;;;13.27;100.00
6853;BME280;3465;42.144;24.722;2023-05-17T04:00:14;146238.44;;;13.29;100.00
6853;BME280;3465;42.144;24.722;2023-05-17T04:02:45;146258.53;;;13.37;100.00
6853;BME280;3465;42.144;24.722;2023-05-17T04:05:10;146277.34;;;13.44;100.00
6853;BME280;3465;42.144;24.722;2023-05-17T04:07:37;146301.19;;;13.54;100.00
6853;BME280;3465;42.144;24.722;2023-05-17T04:10:03;146322.56;;;13.62;100.00
6853;BME280;3465;42.144;24.722;2023-05-17T04:12:28;146322.56;;;13.62;100.00
6853;BME280;3465;42.144;24.722;2023-05-17T04:14:54;146345.13;;;13.71;100.00
6853;BME280;3465;42.144;24.722;2023-05-17T04:17:20;146353.94;;;13.75;100.00
6853;BME280;3465;42.144;24.722;2023-05-17T04:19:45;146364.00;;;13.79;100.00
6853;BME280;3465;42.144;24.722;2023-05-17T04:22:10;146371.53;;;13.82;100.00
6853;BME280;3465;42.144;24.722;2023-05-17T04:24:36;146384.09;;;13.87;100.00
6853;BME280;3465;42.144;24.722;2023-05-17T04:27:01;146364.00;;;13.79;100.00
6853;BME280;3465;42.144;24.722;2023-05-17T04:29:28;146414.22;;;13.99;100.00
6853;BME280;3465;42.144;24.722;2023-05-17T04:31:54;146424.28;;;14.03;100.00
6853;BME280;3465;42.144;24.722;2023-05-17T04:34:19;146404.19;;;13.95;100.00
6853;BME280;3465;42.144;24.722;2023-05-17T04:36:46;146348.97;;;13.73;100.00
6853;BME280;3465;42.144;24.722;2023-05-17T04:39:11;146439.34;;;14.09;100.00
6853;BME280;3465;42.144;24.722;2023-05-17T04:41:37;146451.94;;;14.14;100.00
6853;BME280;3465;42.144;24.722;2023-05-17T04:44:04;146468.25;;;14.20;100.00
6853;BME280;3465;42.144;24.722;2023-05-17T04:46:30;146445.63;;;14.11;100.00
6853;BME280;3465;42.144;24.722;2023-05-17T04:48:56;146497.22;;;14.32;100.00
6853;BME280;3465;42.144;24.722;2023-05-17T04:51:22;146519.81;;;14.41;100.00
6853;BME280;3465;42.144;24.722;2023-05-17T04:53:47;146554.97;;;14.55;100.00
6853;BME280;3465;42.144;24.722;2023-05-17T04:56:13;146547.44;;;14.52;100.00
6853;BME280;3465;42.144;24.722;2023-05-17T04:58:38;146557.53;;;14.56;100.00
6853;BME280;3465;42.144;24.722;2023-05-17T05:01:04;146585.16;;;14.67;100.00
6853;BME280;3465;42.144;24.722;2023-05-17T05:03:29;146598.97;;;14.73;100.00
6853;BME280;3465;42.144;24.722;2023-05-17T05:05:55;146632.91;;;14.86;100.00
6853;BME280;3465;42.144;24.722;2023-05-17T05:08:20;146659.28;;;14.97;100.00
6853;BME280;3465;42.144;24.722;2023-05-17T05:10:46;146689.50;;;15.09;100.00
6853;BME280;3465;42.144;24.722;2023-05-17T05:13:11;146720.91;;;15.21;100.00
6853;BME280;3465;42.144;24.722;2023-05-17T05:15:37;146746.06;;;15.31;100.00
6853;BME280;3465;42.144;24.722;2023-05-17T05:18:02;146762.41;;;15.38;100.00
6853;BME280;3465;42.144;24.722;2023-05-17T05:20:28;146764.97;;;15.39;100.00
6853;BME280;3465;42.144;24.722;2023-05-17T05:22:53;146778.81;;;15.44;100.00
6853;BME280;3465;42.144;24.722;2023-05-17T05:25:19;146797.66;;;15.52;100.00
6853;BME280;3465;42.144;24.722;2023-05-17T05:27:44;146798.94;;;15.52;100.00
6853;BME280;3465;42.144;24.722;2023-05-17T05:30:10;146798.94;;;15.52;100.00
6853;BME280;3465;42.144;24.722;2023-05-17T05:32:36;146811.53;;;15.57;100.00
6853;BME280;3465;42.144;24.722;2023-05-17T05:35:03;146829.09;;;15.64;100.00
6853;BME280;3465;42.144;24.722;2023-05-17T05:37:29;146851.78;;;15.73;100.00
6853;BME280;3465;42.144;24.722;2023-05-17T05:39:55;146874.41;;;15.83;100.00
6853;BME280;3465;42.144;24.722;2023-05-17T05:42:20;146880.66;;;15.85;100.00
6853;BME280;3465;42.144;24.722;2023-05-17T05:44:46;146886.97;;;15.88;100.00
6853;BME280;3465;42.144;24.722;2023-05-17T05:47:11;146878.16;;;15.84;100.00
6853;BME280;3465;42.144;24.722;2023-05-17T05:49:36;146756.09;;;15.35;100.00
6853;BME280;3465;42.144;24.722;2023-05-17T05:52:02;146871.91;;;15.82;100.00
6853;BME280;3465;42.144;24.722;2023-05-17T05:54:27;146870.63;;;15.81;100.00
6853;BME280;3465;42.144;24.722;2023-05-17T05:56:53;146874.41;;;15.83;100.00
6853;BME280;3465;42.144;24.722;2023-05-17T05:59:19;146876.88;;;15.84;100.00
6853;BME280;3465;42.144;24.722;2023-05-17T06:01:44;146849.22;;;15.72;100.00
6853;BME280;3465;42.144;24.722;2023-05-17T06:04:10;146839.19;;;15.68;100.00
6853;BME280;3465;42.144;24.722;2023-05-17T06:06:35;146758.66;;;15.36;100.00
6853;BME280;3465;42.144;24.722;2023-05-17T06:09:01;146881.94;;;15.86;100.00
6853;BME280;3465;42.144;24.722;2023-05-17T06:11:27;146886.97;;;15.88;100.00
6853;BME280;3465;42.144;24.722;2023-05-17T06:13:52;146874.41;;;15.83;100.00
6853;BME280;3465;42.144;24.722;2023-05-17T06:16:17;146889.47;;;15.89;100.00
6853;BME280;3465;42.144;24.722;2023-05-17T06:18:43;146836.63;;;15.67;100.00
6853;BME280;3465;42.144;24.722;2023-05-17T06:21:08;146889.47;;;15.89;100.00
6853;BME280;3465;42.144;24.722;2023-05-17T06:23:34;146895.78;;;15.91;100.00
6853;BME280;3465;42.144;24.722;2023-05-17T06:25:59;146907.09;;;15.96;100.00
6853;BME280;3465;42.144;24.722;2023-05-17T06:28:25;146902.06;;;15.94;100.00
6853;BME280;3465;42.144;24.722;2023-05-17T06:30:50;146964.94;;;16.19;100.00
6853;BME280;3465;42.144;24.722;2023-05-17T06:33:16;146987.63;;;16.28;100.00
6853;BME280;3465;42.144;24.722;2023-05-17T06:35:41;146985.09;;;16.27;100.00
6853;BME280;3465;42.144;24.722;2023-05-17T06:38:06;146993.91;;;16.30;100.00
6853;BME280;3465;42.144;24.722;2023-05-17T06:40:32;147035.50;;;16.47;100.00
6853;BME280;3465;42.144;24.722;2023-05-17T06:42:57;147070.72;;;16.61;100.00
6853;BME280;3465;42.144;24.722;2023-05-17T06:45:23;147105.97;;;16.75;100.00
6853;BME280;3465;42.144;24.722;2023-05-17T06:47:48;147113.56;;;16.78;100.00
6853;BME280;3465;42.144;24.722;2023-05-17T06:50:13;147116.06;;;16.79;100.00
6853;BME280;3465;42.144;24.722;2023-05-17T06:52:39;147126.13;;;16.83;100.00
6853;BME280;3465;42.144;24.722;2023-05-17T06:55:05;147131.16;;;16.85;100.00
6853;BME280;3465;42.144;24.722;2023-05-17T06:57:31;147100.97;;;16.73;100.00
6853;BME280;3465;42.144;24.722;2023-05-17T06:59:57;147112.28;;;16.77;100.00
6853;BME280;3465;42.144;24.722;2023-05-17T07:02:22;147069.47;;;16.60;100.00
6853;BME280;3465;42.144;24.722;2023-05-17T07:04:48;147073.28;;;16.62;100.00
6853;BME280;3465;42.144;24.722;2023-05-17T07:07:13;147045.53;;;16.51;100.00
6853;BME280;3465;42.144;24.722;2023-05-17T07:09:39;147039.28;;;16.48;100.00
6853;BME280;3465;42.144;24.722;2023-05-17T07:12:04;147019.09;;;16.40;100.00
6853;BME280;3465;42.144;24.722;2023-05-17T07:14:30;147011.53;;;16.37;100.00
6853;BME280;3465;42.144;24.722;2023-05-17T07:16:56;146988.84;;;16.28;100.00
6853;BME280;3465;42.144;24.722;2023-05-17T07:19:21;146977.53;;;16.24;100.00
6853;BME280;3465;42.144;24.722;2023-05-17T07:21:47;146975.03;;;16.23;100.00
6853;BME280;3465;42.144;24.722;2023-05-17T07:24:12;146943.59;;;16.10;100.00
6853;BME280;3465;42.144;24.722;2023-05-17T07:26:37;146924.69;;;16.03;100.00
6853;BME280;3465;42.144;24.722;2023-05-17T07:29:03;146920.91;;;16.01;100.00
6853;BME280;3465;42.144;24.722;2023-05-17T07:31:28;146902.06;;;15.94;100.00
6853;BME280;3465;42.144;24.722;2023-05-17T07:33:54;146886.97;;;15.88;100.00
6853;BME280;3465;42.144;24.722;2023-05-17T07:36:19;146860.53;;;15.77;100.00
6853;BME280;3465;42.144;24.722;2023-05-17T07:38:45;146841.69;;;15.69;100.00
6853;BME280;3465;42.144;24.722;2023-05-17T07:41:10;146864.31;;;15.78;100.00
6853;BME280;3465;42.144;24.722;2023-05-17T07:43:37;146842.94;;;15.70;100.00
6853;BME280;3465;42.144;24.722;2023-05-17T07:46:03;146830.38;;;15.65;100.00
6853;BME280;3465;42.144;24.722;2023-05-17T07:48:29;146811.53;;;15.57;100.00
6853;BME280;3465;42.144;24.722;2023-05-17T07:50:54;146775.03;;;15.43;100.00
6853;BME280;3465;42.144;24.722;2023-05-17T07:53:20;146781.31;;;15.45;100.00
6853;BME280;3465;42.144;24.722;2023-05-17T07:55:45;146777.53;;;15.44;100.00
6853;BME280;3465;42.144;24.722;2023-05-17T07:58:11;146776.28;;;15.43;100.00
6853;BME280;3465;42.144;24.722;2023-05-17T08:00:37;146752.34;;;15.34;100.00
6853;BME280;3465;42.144;24.722;2023-05-17T08:03:02;146757.38;;;15.36;100.00
6853;BME280;3465;42.144;24.722;2023-05-17T08:05:28;146758.66;;;15.36;100.00
6853;BME280;3465;42.144;24.722;2023-05-17T08:07:53;146761.16;;;15.37;100.00
6853;BME280;3465;42.144;24.722;2023-05-17T08:10:19;146751.13;;;15.33;100.00
6853;BME280;3465;42.144;24.722;2023-05-17T08:12:45;146746.06;;;15.31;100.00
6853;BME280;3465;42.144;24.722;2023-05-17T08:15:11;146727.19;;;15.24;100.00
6853;BME280;3465;42.144;24.722;2023-05-17T08:17:36;146735.97;;;15.27;100.00
6853;BME280;3465;42.144;24.722;2023-05-17T08:20:02;146731.00;;;15.25;100.00
6853;BME280;3465;42.144;24.722;2023-05-17T08:22:27;146728.44;;;15.24;100.00
6853;BME280;3465;42.144;24.722;2023-05-17T08:24:52;146731.00;;;15.25;100.00
6853;BME280;3465;42.144;24.722;2023-05-17T08:27:18;146733.47;;;15.26;100.00
6853;BME280;3465;42.144;24.722;2023-05-17T08:29:43;146729.72;;;15.25;100.00
6853;BME280;3465;42.144;24.722;2023-05-17T08:32:08;146731.00;;;15.25;100.00
6853;BME280;3465;42.144;24.722;2023-05-17T08:34:34;146715.88;;;15.19;100.00
6853;BME280;3465;42.144;24.722;2023-05-17T08:37:00;146693.25;;;15.10;100.00
6853;BME280;3465;42.144;24.722;2023-05-17T08:39:26;146698.28;;;15.12;100.00
6853;BME280;3465;42.144;24.722;2023-05-17T08:41:51;146702.06;;;15.14;100.00
6853;BME280;3465;42.144;24.722;2023-05-17T08:44:18;146695.75;;;15.11;100.00
6853;BME280;3465;42.144;24.722;2023-05-17T08:46:45;146693.25;;;15.10;100.00
6853;BME280;3465;42.144;24.722;2023-05-17T08:49:22;146704.56;;;15.15;100.00
6853;BME280;3465;42.144;24.722;2023-05-17T08:51:52;146689.50;;;15.09;100.00
6853;BME280;3465;42.144;24.722;2023-05-17T08:54:17;146686.94;;;15.08;100.00
6853;BME280;3465;42.144;24.722;2023-05-17T08:56:43;146690.75;;;15.09;100.00
6853;BME280;3465;42.144;24.722;2023-05-17T08:59:10;146684.44;;;15.07;100.00
6853;BME280;3465;42.144;24.722;2023-05-17T09:01:38;146709.59;;;15.17;100.00
6853;BME280;3465;42.144;24.722;2023-05-17T09:04:07;146723.41;;;15.22;100.00
6853;BME280;3465;42.144;24.722;2023-05-17T09:06:33;146717.13;;;15.20;100.00
6853;BME280;3465;42.144;24.722;2023-05-17T09:08:59;146698.28;;;15.12;100.00
6853;BME280;3465;42.144;24.722;2023-05-17T09:11:29;146697.03;;;15.12;100.00
6853;BME280;3465;42.144;24.722;2023-05-17T09:13:59;146690.75;;;15.09;100.00
6853;BME280;3465;42.144;24.722;2023-05-17T09:16:29;146695.75;;;15.11;100.00
6853;BME280;3465;42.144;24.722;2023-05-17T09:18:56;146717.13;;;15.20;100.00
6853;BME280;3465;42.144;24.722;2023-05-17T09:21:23;146703.28;;;15.14;100.00
6853;BME280;3465;42.144;24.722;2023-05-17T09:23:50;146691.97;;;15.10;100.00
6853;BME280;3465;42.144;24.722;2023-05-17T09:26:15;146680.69;;;15.05;100.00
6853;BME280;3465;42.144;24.722;2023-05-17T09:28:42;146686.94;;;15.08;100.00
6853;BME280;3465;42.144;24.722;2023-05-17T09:31:09;146693.25;;;15.10;100.00
6853;BME280;3465;42.144;24.722;2023-05-17T09:33:50;146671.88;;;15.02;100.00
6853;BME280;3465;42.144;24.722;2023-05-17T09:36:21;146668.09;;;15.00;100.00
6853;BME280;3465;42.144;24.722;2023-05-17T09:38:56;146680.69;;;15.05;100.00
6853;BME280;3465;42.144;24.722;2023-05-17T09:41:26;146627.88;;;14.84;100.00
6853;BME280;3465;42.144;24.722;2023-05-17T09:43:53;146664.34;;;14.99;100.00
6853;BME280;3465;42.144;24.722;2023-05-17T09:46:21;146654.31;;;14.95;100.00
6853;BME280;3465;42.144;24.722;2023-05-17T09:48:52;146648.00;;;14.92;100.00
6853;BME280;3465;42.144;24.722;2023-05-17T09:51:19;146668.09;;;15.00;100.00
6853;BME280;3465;42.144;24.722;2023-05-17T09:53:44;146689.50;;;15.09;100.00
6853;BME280;3465;42.144;24.722;2023-05-17T09:56:10;146685.72;;;15.07;100.00
6853;BME280;3465;42.144;24.722;2023-05-17T09:58:36;146685.72;;;15.07;100.00
6853;BME280;3465;42.144;24.722;2023-05-17T10:01:06;146707.06;;;15.16;100.00
6853;BME280;3465;42.144;24.722;2023-05-17T10:03:34;146713.38;;;15.18;100.00
6853;BME280;3465;42.144;24.722;2023-05-17T10:06:02;146708.31;;;15.16;100.00
6853;BME280;3465;42.144;24.722;2023-05-17T10:08:30;146715.88;;;15.19;100.00
6853;BME280;3465;42.144;24.722;2023-05-17T10:10:59;146656.78;;;14.96;100.00
6853;BME280;3465;42.144;24.722;2023-05-17T10:13:33;146655.53;;;14.95;100.00
6853;BME280;3465;42.144;24.722;2023-05-17T10:15:59;146661.84;;;14.98;100.00
6853;BME280;3465;42.144;24.722;2023-05-17T10:18:25;146654.31;;;14.95;100.00
6853;BME280;3465;42.144;24.722;2023-05-17T10:20:52;146681.94;;;15.06;100.00
6853;BME280;3465;42.144;24.722;2023-05-17T10:23:18;146654.31;;;14.95;100.00
6853;BME280;3465;42.144;24.722;2023-05-17T10:25:45;146707.06;;;15.16;100.00
6853;BME280;3465;42.144;24.722;2023-05-17T10:28:11;146728.44;;;15.24;100.00
6853;BME280;3465;42.144;24.722;2023-05-17T10:30:38;146778.81;;;15.44;100.00
6853;BME280;3465;42.144;24.722;2023-05-17T10:33:04;146785.09;;;15.47;100.00
6853;BME280;3465;42.144;24.722;2023-05-17T10:35:29;146791.41;;;15.49;100.00
6853;BME280;3465;42.144;24.722;2023-05-17T10:37:57;146751.13;;;15.33;100.00
6853;BME280;3465;42.144;24.722;2023-05-17T10:40:22;146781.31;;;15.45;100.00
6853;BME280;3465;42.144;24.722;2023-05-17T10:42:51;146798.94;;;15.52;100.00
6853;BME280;3465;42.144;24.722;2023-05-17T10:45:23;146816.50;;;15.59;100.00
6853;BME280;3465;42.144;24.722;2023-05-17T10:47:50;146856.75;;;15.75;100.00
6853;BME280;3465;42.144;24.722;2023-05-17T10:50:21;146851.78;;;15.73;100.00
6853;BME280;3465;42.144;24.722;2023-05-17T10:52:48;146866.84;;;15.80;100.00
6853;BME280;3465;42.144;24.722;2023-05-17T10:55:20;146815.28;;;15.59;100.00
6853;BME280;3465;42.144;24.722;2023-05-17T10:58:18;146805.22;;;15.55;100.00
6853;BME280;3465;42.144;24.722;2023-05-17T11:00:49;146791.41;;;15.49;100.00
6853;BME280;3465;42.144;24.722;2023-05-17T11:03:25;146803.94;;;15.54;100.00
6853;BME280;3465;42.144;24.722;2023-05-17T11:08:36;146831.63;;;15.65;100.00
6853;BME280;3465;42.144;24.722;2023-05-17T11:11:17;146844.19;;;15.70;100.00
6853;BME280;3465;42.144;24.722;2023-05-17T11:13:44;146853.00;;;15.74;100.00
6853;BME280;3465;42.144;24.722;2023-05-17T11:16:14;146863.09;;;15.78;100.00
6853;BME280;3465;42.144;24.722;2023-05-17T11:18:53;146861.81;;;15.77;100.00
6853;BME280;3465;42.144;24.722;2023-05-17T11:21:21;146865.59;;;15.79;100.00
6853;BME280;3465;42.144;24.722;2023-05-17T11:23:47;146859.31;;;15.77;100.00
6853;BME280;3465;42.144;24.722;2023-05-17T11:26:32;146879.44;;;15.85;100.00
6853;BME280;3465;42.144;24.722;2023-05-17T11:29:00;146910.88;;;15.97;100.00
6853;BME280;3465;42.144;24.722;2023-05-17T11:31:34;146917.16;;;16.00;100.00
6853;BME280;3465;42.144;24.722;2023-05-17T11:34:02;146904.56;;;15.95;100.00
6853;BME280;3465;42.144;24.722;2023-05-17T11:36:28;146912.16;;;15.98;100.00
6853;BME280;3465;42.144;24.722;2023-05-17T11:39:11;146924.69;;;16.03;100.00
6853;BME280;3465;42.144;24.722;2023-05-17T11:41:38;146934.78;;;16.07;100.00
6853;BME280;3465;42.144;24.722;2023-05-17T11:44:07;146932.28;;;16.06;100.00
6853;BME280;3465;42.144;24.722;2023-05-17T11:46:36;146884.44;;;15.87;100.00
6853;BME280;3465;42.144;24.722;2023-05-17T11:49:08;146934.78;;;16.07;100.00
6853;BME280;3465;42.144;24.722;2023-05-17T11:51:34;146922.19;;;16.02;100.00
6853;BME280;3465;42.144;24.722;2023-05-17T11:53:59;146909.59;;;15.97;100.00
6853;BME280;3465;42.144;24.722;2023-05-17T11:56:34;146898.28;;;15.92;100.00
6853;BME280;3465;42.144;24.722;2023-05-17T11:59:01;146912.16;;;15.98;100.00
6853;BME280;3465;42.144;24.722;2023-05-17T12:01:26;146919.69;;;16.01;100.00
6853;BME280;3465;42.144;24.722;2023-05-17T12:03:55;146929.72;;;16.05;100.00
6853;BME280;3465;42.144;24.722;2023-05-17T12:06:24;146951.13;;;16.13;100.00
6853;BME280;3465;42.144;24.722;2023-05-17T12:08:50;146947.38;;;16.12;100.00
6853;BME280;3465;42.144;24.722;2023-05-17T12:11:16;146961.19;;;16.17;100.00
6853;BME280;3465;42.144;24.722;2023-05-17T12:13:43;146944.81;;;16.11;100.00
6853;BME280;3465;42.144;24.722;2023-05-17T12:16:13;146954.91;;;16.15;100.00
6853;BME280;3465;42.144;24.722;2023-05-17T12:18:49;146936.06;;;16.07;100.00
6853;BME280;3465;42.144;24.722;2023-05-17T12:21:15;146928.47;;;16.04;100.00
6853;BME280;3465;42.144;24.722;2023-05-17T12:23:43;146918.41;;;16.00;100.00
6853;BME280;3465;42.144;24.722;2023-05-17T12:26:16;146924.69;;;16.03;100.00
6853;BME280;3465;42.144;24.722;2023-05-17T12:28:53;146917.16;;;16.00;100.00
6853;BME280;3465;42.144;24.722;2023-05-17T12:31:23;146904.56;;;15.95;100.00
6853;BME280;3465;42.144;24.722;2023-05-17T12:33:50;146897.00;;;15.92;100.00
6853;BME280;3465;42.144;24.722;2023-05-17T12:36:16;146897.00;;;15.92;100.00
6853;BME280;3465;42.144;24.722;2023-05-17T12:38:43;146917.16;;;16.00;100.00
6853;BME280;3465;42.144;24.722;2023-05-17T12:41:13;146929.72;;;16.05;100.00
6853;BME280;3465;42.144;24.722;2023-05-17T12:43:39;146941.06;;;16.09;100.00
6853;BME280;3465;42.144;24.722;2023-05-17T12:46:12;146874.41;;;15.83;100.00
6853;BME280;3465;42.144;24.722;2023-05-17T12:48:41;146980.09;;;16.25;100.00
6853;BME280;3465;42.144;24.722;2023-05-17T12:51:12;146973.78;;;16.22;100.00
6853;BME280;3465;42.144;24.722;2023-05-17T12:53:40;146975.03;;;16.23;100.00
6853;BME280;3465;42.144;24.722;2023-05-17T12:56:07;146990.13;;;16.29;100.00
6853;BME280;3465;42.144;24.722;2023-05-17T12:58:33;146996.44;;;16.31;100.00
6853;BME280;3465;42.144;24.722;2023-05-17T13:01:02;146985.09;;;16.27;100.00
6853;BME280;3465;42.144;24.722;2023-05-17T13:03:31;146995.19;;;16.31;100.00
6853;BME280;3465;42.144;24.722;2023-05-17T13:06:06;146964.94;;;16.19;100.00
6853;BME280;3465;42.144;24.722;2023-05-17T13:08:34;146997.69;;;16.32;100.00
6853;BME280;3465;42.144;24.722;2023-05-17T13:11:13;147000.22;;;16.33;100.00